createdAt,value
2023-07-24T00:00:10.640Z,0.00
2023-07-24T00:01:10.713Z,0.00
2023-07-24T00:02:10.723Z,0.00
2023-07-24T00:03:10.831Z,0.00
2023-07-24T00:04:10.783Z,0.00
2023-07-24T00:05:10.818Z,0.00
2023-07-24T00:06:10.852Z,0.00
2023-07-24T00:07:10.896Z,0.00
2023-07-24T00:08:10.929Z,0.00
2023-07-24T00:09:10.966Z,0.00
2023-07-24T00:10:11.011Z,0.00
2023-07-24T00:11:11.035Z,0.00
2023-07-24T00:12:11.074Z,0.00
2023-07-24T00:13:11.107Z,0.00
2023-07-24T00:14:11.146Z,0.00
2023-07-24T00:15:11.201Z,0.00
2023-07-24T00:16:11.221Z,0.00
2023-07-24T00:17:11.256Z,0.00
2023-07-24T00:18:11.297Z,0.00
2023-07-24T00:19:11.338Z,0.00
2023-07-24T00:20:11.369Z,0.00
2023-07-24T00:21:11.393Z,0.00
2023-07-24T00:22:11.437Z,0.00
2023-07-24T00:23:11.516Z,0.00
2023-07-24T00:24:11.575Z,0.00
2023-07-24T00:25:11.551Z,0.00
2023-07-24T00:26:11.575Z,0.00
2023-07-24T00:27:11.617Z,0.00
2023-07-24T00:28:11.651Z,0.00
2023-07-24T00:29:11.681Z,0.00
2023-07-24T00:30:11.719Z,0.00
2023-07-24T00:31:11.771Z,0.00
2023-07-24T00:32:11.798Z,0.00
2023-07-24T00:33:11.840Z,0.00
2023-07-24T00:34:11.890Z,0.00
2023-07-24T00:35:11.900Z,0.00
2023-07-24T00:36:11.939Z,0.00
2023-07-24T00:37:11.977Z,0.00
2023-07-24T00:38:12.011Z,0.00
2023-07-24T00:39:12.046Z,0.00
2023-07-24T00:40:12.081Z,0.00
2023-07-24T00:41:12.113Z,0.00
2023-07-24T00:42:12.149Z,0.00
2023-07-24T00:43:12.185Z,0.00
2023-07-24T00:44:12.224Z,0.00
2023-07-24T00:45:12.259Z,0.00
2023-07-24T00:46:12.332Z,0.00
2023-07-24T00:47:12.337Z,0.00
2023-07-24T00:48:12.368Z,0.00
2023-07-24T00:49:12.403Z,0.00
2023-07-24T00:50:12.459Z,0.00
2023-07-24T00:51:12.478Z,0.00
2023-07-24T00:52:12.526Z,0.00
2023-07-24T00:53:12.547Z,0.00
2023-07-24T00:54:12.582Z,0.00
2023-07-24T00:55:12.620Z,0.00
2023-07-24T00:56:12.676Z,0.00
2023-07-24T00:57:12.699Z,0.00
2023-07-24T00:58:12.729Z,0.00
2023-07-24T00:59:12.764Z,0.00
2023-07-24T01:00:12.807Z,0.00
2023-07-24T01:01:12.876Z,0.00
2023-07-24T01:02:12.870Z,0.00
2023-07-24T01:03:12.909Z,0.00
2023-07-24T01:04:12.952Z,0.00
2023-07-24T01:05:13.146Z,0.00
2023-07-24T01:06:13.023Z,0.00
2023-07-24T01:07:13.051Z,0.00
2023-07-24T01:08:13.085Z,0.00
2023-07-24T01:09:13.139Z,0.00
2023-07-24T01:10:13.156Z,0.00
2023-07-24T01:11:13.198Z,0.00
2023-07-24T01:12:13.230Z,0.00
2023-07-24T01:13:13.266Z,0.00
2023-07-24T01:14:13.310Z,0.00
2023-07-24T01:15:13.344Z,0.00
2023-07-24T01:16:13.394Z,0.00
2023-07-24T01:17:13.417Z,0.00
2023-07-24T01:18:13.454Z,0.00
2023-07-24T01:19:13.487Z,0.00
2023-07-24T01:20:13.521Z,0.00
2023-07-24T01:21:13.568Z,0.00
2023-07-24T01:22:13.599Z,0.00
2023-07-24T01:23:13.624Z,0.00
2023-07-24T01:24:13.689Z,0.00
2023-07-24T01:25:13.698Z,0.00
2023-07-24T01:26:13.734Z,0.00
2023-07-24T01:27:13.773Z,0.00
2023-07-24T01:28:13.816Z,0.00
2023-07-24T01:29:13.853Z,0.00
2023-07-24T01:30:13.880Z,0.00
2023-07-24T01:31:13.916Z,0.00
2023-07-24T01:32:14.001Z,0.00
2023-07-24T01:33:13.985Z,0.00
2023-07-24T01:34:14.020Z,0.00
2023-07-24T01:35:14.060Z,0.00
2023-07-24T01:36:14.094Z,0.00
2023-07-24T01:37:14.127Z,0.00
2023-07-24T01:38:14.173Z,0.00
2023-07-24T01:39:14.200Z,0.00
2023-07-24T01:40:14.257Z,0.00
2023-07-24T01:41:14.271Z,0.00
2023-07-24T01:42:14.320Z,0.00
2023-07-24T01:43:14.347Z,0.00
2023-07-24T01:44:14.382Z,0.00
2023-07-24T01:45:14.413Z,0.00
2023-07-24T01:46:14.489Z,0.00
2023-07-24T01:47:14.494Z,0.00
2023-07-24T01:48:14.619Z,0.00
2023-07-24T01:49:14.554Z,0.00
2023-07-24T01:50:14.593Z,0.00
2023-07-24T01:51:14.626Z,0.00
2023-07-24T01:52:14.658Z,0.00
2023-07-24T01:53:14.696Z,0.00
2023-07-24T01:54:14.738Z,0.00
2023-07-24T01:55:14.767Z,0.00
2023-07-24T01:56:14.802Z,0.00
2023-07-24T01:57:14.851Z,0.00
2023-07-24T01:58:14.874Z,0.00
2023-07-24T01:59:14.912Z,0.00
2023-07-24T02:00:14.952Z,0.00
2023-07-24T02:01:15.040Z,0.00
2023-07-24T02:02:15.026Z,0.00
2023-07-24T02:03:15.195Z,0.00
2023-07-24T02:04:15.096Z,0.00
2023-07-24T02:05:15.141Z,0.00
2023-07-24T02:06:15.182Z,0.00
2023-07-24T02:07:16.197Z,0.00
2023-07-24T02:08:15.236Z,0.00
2023-07-24T02:09:15.276Z,0.00
2023-07-24T02:10:15.359Z,0.00
2023-07-24T02:11:15.345Z,0.00
2023-07-24T02:12:15.377Z,0.00
2023-07-24T02:13:15.429Z,0.00
2023-07-24T02:14:15.449Z,0.00
2023-07-24T02:15:15.491Z,0.00
2023-07-24T02:16:15.578Z,0.00
2023-07-24T02:17:15.566Z,0.00
2023-07-24T02:18:15.593Z,0.00
2023-07-24T02:19:15.626Z,0.00
2023-07-24T02:20:15.674Z,0.00
2023-07-24T02:21:15.719Z,0.00
2023-07-24T02:22:15.737Z,0.00
2023-07-24T02:23:15.785Z,0.00
2023-07-24T02:24:15.826Z,0.00
2023-07-24T02:25:15.850Z,0.00
2023-07-24T02:26:15.887Z,0.00
2023-07-24T02:27:15.918Z,0.00
2023-07-24T02:28:15.963Z,0.00
2023-07-24T02:29:15.987Z,0.00
2023-07-24T02:30:16.073Z,0.00
2023-07-24T02:31:16.075Z,0.00
2023-07-24T02:32:16.099Z,0.00
2023-07-24T02:33:16.138Z,0.00
2023-07-24T02:34:16.166Z,0.00
2023-07-24T02:35:16.227Z,0.00
2023-07-24T02:36:16.238Z,0.00
2023-07-24T02:37:16.290Z,0.00
2023-07-24T02:38:16.317Z,0.00
2023-07-24T02:39:16.350Z,0.00
2023-07-24T02:40:16.387Z,0.00
2023-07-24T02:41:16.418Z,0.00
2023-07-24T02:42:16.474Z,0.00
2023-07-24T02:43:16.488Z,0.00
2023-07-24T02:44:16.527Z,0.00
2023-07-24T02:45:16.560Z,0.00
2023-07-24T02:46:16.668Z,0.00
2023-07-24T02:47:16.637Z,0.00
2023-07-24T02:48:16.672Z,0.00
2023-07-24T02:49:16.702Z,0.00
2023-07-24T02:50:16.748Z,0.00
2023-07-24T02:51:16.785Z,0.00
2023-07-24T02:52:16.851Z,0.00
2023-07-24T02:53:16.852Z,0.00
2023-07-24T02:54:16.883Z,0.00
2023-07-24T02:55:16.921Z,0.00
2023-07-24T02:56:16.958Z,0.00
2023-07-24T02:57:17.013Z,0.00
2023-07-24T02:58:17.045Z,0.00
2023-07-24T02:59:17.068Z,0.00
2023-07-24T03:00:17.107Z,0.00
2023-07-24T03:01:17.191Z,0.00
2023-07-24T03:02:17.205Z,0.00
2023-07-24T03:03:17.299Z,0.00
2023-07-24T03:04:17.250Z,0.00
2023-07-24T03:05:17.272Z,0.00
2023-07-24T03:06:17.312Z,0.00
2023-07-24T03:07:17.356Z,0.00
2023-07-24T03:08:17.390Z,4.00
2023-07-24T03:09:17.420Z,4.00
2023-07-24T03:10:17.457Z,4.00
2023-07-24T03:11:17.491Z,0.00
2023-07-24T03:12:17.530Z,4.00
2023-07-24T03:13:17.565Z,4.00
2023-07-24T03:14:17.638Z,4.00
2023-07-24T03:15:17.636Z,4.00
2023-07-24T03:16:17.701Z,4.00
2023-07-24T03:17:17.709Z,4.00
2023-07-24T03:18:17.746Z,4.00
2023-07-24T03:19:17.776Z,8.00
2023-07-24T03:20:17.826Z,4.00
2023-07-24T03:21:17.872Z,4.00
2023-07-24T03:22:17.887Z,8.00
2023-07-24T03:23:17.923Z,8.00
2023-07-24T03:24:17.984Z,4.00
2023-07-24T03:25:17.995Z,8.00
2023-07-24T03:26:18.059Z,8.00
2023-07-24T03:27:18.068Z,4.00
2023-07-24T03:28:18.108Z,8.00
2023-07-24T03:29:18.135Z,8.00
2023-07-24T03:30:18.202Z,8.00
2023-07-24T03:31:18.262Z,8.00
2023-07-24T03:32:18.259Z,8.00
2023-07-24T03:33:18.279Z,8.00
2023-07-24T03:34:18.347Z,12.00
2023-07-24T03:35:18.357Z,8.00
2023-07-24T03:36:18.407Z,8.00
2023-07-24T03:37:18.427Z,12.00
2023-07-24T03:38:18.461Z,8.00
2023-07-24T03:39:18.496Z,12.00
2023-07-24T03:40:18.532Z,8.00
2023-07-24T03:41:18.573Z,12.00
2023-07-24T03:42:18.606Z,12.00
2023-07-24T03:43:18.648Z,8.00
2023-07-24T03:44:18.685Z,8.00
2023-07-24T03:45:18.710Z,12.00
2023-07-24T03:46:18.793Z,12.00
2023-07-24T03:47:18.789Z,16.00
2023-07-24T03:48:18.822Z,20.00
2023-07-24T03:49:18.854Z,20.00
2023-07-24T03:50:18.892Z,20.00
2023-07-24T03:51:18.934Z,20.00
2023-07-24T03:52:18.966Z,20.00
2023-07-24T03:53:18.996Z,20.00
2023-07-24T03:54:19.038Z,24.00
2023-07-24T03:55:19.080Z,20.00
2023-07-24T03:56:19.114Z,24.00
2023-07-24T03:57:19.138Z,20.00
2023-07-24T03:58:19.176Z,24.00
2023-07-24T03:59:19.213Z,24.00
2023-07-24T04:00:19.248Z,28.00
2023-07-24T04:01:19.354Z,28.00
2023-07-24T04:02:19.326Z,28.00
2023-07-24T04:03:19.509Z,24.00
2023-07-24T04:04:19.414Z,28.00
2023-07-24T04:05:19.436Z,28.00
2023-07-24T04:06:19.459Z,28.00
2023-07-24T04:07:19.508Z,32.00
2023-07-24T04:08:19.538Z,32.00
2023-07-24T04:09:19.572Z,40.00
2023-07-24T04:10:19.608Z,44.00
2023-07-24T04:11:19.641Z,48.00
2023-07-24T04:12:19.684Z,60.00
2023-07-24T04:13:19.713Z,64.00
2023-07-24T04:14:19.764Z,72.00
2023-07-24T04:15:19.784Z,76.00
2023-07-24T04:16:19.819Z,80.00
2023-07-24T04:17:19.928Z,80.00
2023-07-24T04:18:19.895Z,80.00
2023-07-24T04:19:19.937Z,80.00
2023-07-24T04:20:19.970Z,84.00
2023-07-24T04:21:20.002Z,80.00
2023-07-24T04:22:20.034Z,84.00
2023-07-24T04:23:20.069Z,84.00
2023-07-24T04:24:20.143Z,84.00
2023-07-24T04:25:20.140Z,88.00
2023-07-24T04:26:20.173Z,92.00
2023-07-24T04:27:20.213Z,88.00
2023-07-24T04:28:20.250Z,84.00
2023-07-24T04:29:20.292Z,84.00
2023-07-24T04:30:20.316Z,72.00
2023-07-24T04:31:20.449Z,68.00
2023-07-24T04:32:20.438Z,68.00
2023-07-24T04:33:20.426Z,68.00
2023-07-24T04:34:20.563Z,68.00
2023-07-24T04:35:20.517Z,64.00
2023-07-24T04:36:20.530Z,72.00
2023-07-24T04:37:20.576Z,80.00
2023-07-24T04:38:20.603Z,88.00
2023-07-24T04:39:20.640Z,92.00
2023-07-24T04:40:20.674Z,96.00
2023-07-24T04:41:20.715Z,92.00
2023-07-24T04:42:20.749Z,92.00
2023-07-24T04:43:20.782Z,88.00
2023-07-24T04:44:20.820Z,84.00
2023-07-24T04:45:22.934Z,88.00
2023-07-24T04:46:20.924Z,92.00
2023-07-24T04:47:20.929Z,104.00
2023-07-24T04:48:20.959Z,108.00
2023-07-24T04:49:21.001Z,116.00
2023-07-24T04:50:21.042Z,120.00
2023-07-24T04:51:21.069Z,124.00
2023-07-24T04:52:21.114Z,128.00
2023-07-24T04:53:21.143Z,128.00
2023-07-24T04:54:21.175Z,132.00
2023-07-24T04:55:21.218Z,132.00
2023-07-24T04:56:21.248Z,132.00
2023-07-24T04:57:21.302Z,132.00
2023-07-24T04:58:21.321Z,132.00
2023-07-24T04:59:21.356Z,132.00
2023-07-24T05:00:21.393Z,132.00
2023-07-24T05:01:21.463Z,136.00
2023-07-24T05:02:21.470Z,148.00
2023-07-24T05:03:21.499Z,156.00
2023-07-24T05:04:21.582Z,168.00
2023-07-24T05:05:21.593Z,180.00
2023-07-24T05:06:21.613Z,188.00
2023-07-24T05:07:21.642Z,204.00
2023-07-24T05:08:21.681Z,216.00
2023-07-24T05:09:21.714Z,224.00
2023-07-24T05:10:21.808Z,224.00
2023-07-24T05:11:21.789Z,228.00
2023-07-24T05:12:21.821Z,228.00
2023-07-24T05:13:21.858Z,236.00
2023-07-24T05:14:21.908Z,244.00
2023-07-24T05:15:21.957Z,256.00
2023-07-24T05:16:21.978Z,264.00
2023-07-24T05:17:22.027Z,276.00
2023-07-24T05:18:22.044Z,320.00
2023-07-24T05:19:22.075Z,328.00
2023-07-24T05:20:22.129Z,336.00
2023-07-24T05:21:22.147Z,340.00
2023-07-24T05:22:22.221Z,340.00
2023-07-24T05:23:22.221Z,344.00
2023-07-24T05:24:22.280Z,348.00
2023-07-24T05:25:22.291Z,348.00
2023-07-24T05:26:22.325Z,340.00
2023-07-24T05:27:22.362Z,328.00
2023-07-24T05:28:22.400Z,308.00
2023-07-24T05:29:22.433Z,292.00
2023-07-24T05:30:22.471Z,296.00
2023-07-24T05:31:22.545Z,292.00
2023-07-24T05:32:22.606Z,292.00
2023-07-24T05:33:22.581Z,288.00
2023-07-24T05:34:22.623Z,288.00
2023-07-24T05:35:22.652Z,292.00
2023-07-24T05:36:22.690Z,292.00
2023-07-24T05:37:22.723Z,288.00
2023-07-24T05:38:22.764Z,288.00
2023-07-24T05:39:22.804Z,288.00
2023-07-24T05:40:22.856Z,284.00
2023-07-24T05:41:22.878Z,280.00
2023-07-24T05:42:22.910Z,276.00
2023-07-24T05:43:22.955Z,276.00
2023-07-24T05:44:22.978Z,276.00
2023-07-24T05:45:23.012Z,280.00
2023-07-24T05:46:23.073Z,280.00
2023-07-24T05:47:23.168Z,288.00
2023-07-24T05:48:23.132Z,292.00
2023-07-24T05:49:23.158Z,292.00
2023-07-24T05:50:23.197Z,300.00
2023-07-24T05:51:23.238Z,296.00
2023-07-24T05:52:23.266Z,288.00
2023-07-24T05:53:23.322Z,288.00
2023-07-24T05:54:23.362Z,288.00
2023-07-24T05:55:23.381Z,288.00
2023-07-24T05:56:23.423Z,292.00
2023-07-24T05:57:23.453Z,296.00
2023-07-24T05:58:23.487Z,296.00
2023-07-24T05:59:23.520Z,304.00
2023-07-24T06:00:23.562Z,308.00
2023-07-24T06:01:23.621Z,316.00
2023-07-24T06:02:23.654Z,324.00
2023-07-24T06:03:23.761Z,332.00
2023-07-24T06:04:23.750Z,392.00
2023-07-24T06:05:23.742Z,364.00
2023-07-24T06:06:23.775Z,392.00
2023-07-24T06:07:23.812Z,384.00
2023-07-24T06:08:23.859Z,392.00
2023-07-24T06:09:23.883Z,380.00
2023-07-24T06:10:23.930Z,388.00
2023-07-24T06:11:23.957Z,388.00
2023-07-24T06:12:24.000Z,384.00
2023-07-24T06:13:24.034Z,376.00
2023-07-24T06:14:24.064Z,376.00
2023-07-24T06:15:24.099Z,384.00
2023-07-24T06:16:24.218Z,384.00
2023-07-24T06:17:24.199Z,376.00
2023-07-24T06:18:24.216Z,380.00
2023-07-24T06:19:24.250Z,368.00
2023-07-24T06:20:24.284Z,380.00
2023-07-24T06:21:24.322Z,372.00
2023-07-24T06:22:24.359Z,376.00
2023-07-24T06:23:24.398Z,368.00
2023-07-24T06:24:24.457Z,368.00
2023-07-24T06:25:24.476Z,372.00
2023-07-24T06:26:24.605Z,372.00
2023-07-24T06:27:24.540Z,372.00
2023-07-24T06:28:24.578Z,372.00
2023-07-24T06:29:24.612Z,372.00
2023-07-24T06:30:24.653Z,380.00
2023-07-24T06:31:24.720Z,380.00
2023-07-24T06:32:24.734Z,372.00
2023-07-24T06:33:24.760Z,372.00
2023-07-24T06:34:24.805Z,384.00
2023-07-24T06:35:24.832Z,380.00
2023-07-24T06:36:24.922Z,384.00
2023-07-24T06:37:24.906Z,388.00
2023-07-24T06:38:24.943Z,392.00
2023-07-24T06:39:24.977Z,392.00
2023-07-24T06:40:25.011Z,384.00
2023-07-24T06:41:25.057Z,400.00
2023-07-24T06:42:25.092Z,404.00
2023-07-24T06:43:25.139Z,420.00
2023-07-24T06:44:25.168Z,428.00
2023-07-24T06:45:25.197Z,440.00
2023-07-24T06:46:25.263Z,440.00
2023-07-24T06:47:25.302Z,448.00
2023-07-24T06:48:25.306Z,468.00
2023-07-24T06:49:25.346Z,480.00
2023-07-24T06:50:25.388Z,488.00
2023-07-24T06:51:25.415Z,488.00
2023-07-24T06:52:25.451Z,488.00
2023-07-24T06:53:25.489Z,492.00
2023-07-24T06:54:25.527Z,468.00
2023-07-24T06:55:25.560Z,472.00
2023-07-24T06:56:25.602Z,480.00
2023-07-24T06:57:25.651Z,472.00
2023-07-24T06:58:25.689Z,468.00
2023-07-24T06:59:25.727Z,456.00
2023-07-24T07:00:25.752Z,472.00
2023-07-24T07:01:25.827Z,464.00
2023-07-24T07:02:25.838Z,472.00
2023-07-24T07:03:25.904Z,472.00
2023-07-24T07:04:25.912Z,476.00
2023-07-24T07:05:25.926Z,468.00
2023-07-24T07:06:28.854Z,464.00
2023-07-24T07:07:26.022Z,456.00
2023-07-24T07:08:26.047Z,460.00
2023-07-24T07:09:26.081Z,484.00
2023-07-24T07:10:26.114Z,500.00
2023-07-24T07:11:26.155Z,508.00
2023-07-24T07:12:26.199Z,508.00
2023-07-24T07:13:26.227Z,520.00
2023-07-24T07:14:26.262Z,524.00
2023-07-24T07:15:26.325Z,520.00
2023-07-24T07:16:26.426Z,524.00
2023-07-24T07:17:26.390Z,536.00
2023-07-24T07:18:26.431Z,536.00
2023-07-24T07:19:26.481Z,532.00
2023-07-24T07:20:26.481Z,540.00
2023-07-24T07:21:26.518Z,552.00
2023-07-24T07:22:26.563Z,560.00
2023-07-24T07:23:26.598Z,572.00
2023-07-24T07:24:26.764Z,580.00
2023-07-24T07:25:26.664Z,588.00
2023-07-24T07:26:26.706Z,584.00
2023-07-24T07:27:26.738Z,604.00
2023-07-24T07:28:26.774Z,600.00
2023-07-24T07:29:26.814Z,616.00
2023-07-24T07:30:26.854Z,616.00
2023-07-24T07:31:26.896Z,624.00
2023-07-24T07:32:26.953Z,620.00
2023-07-24T07:33:26.962Z,636.00
2023-07-24T07:34:26.996Z,632.00
2023-07-24T07:35:27.044Z,548.00
2023-07-24T07:36:27.195Z,616.00
2023-07-24T07:37:27.111Z,632.00
2023-07-24T07:38:27.158Z,632.00
2023-07-24T07:39:27.184Z,624.00
2023-07-24T07:40:27.216Z,668.00
2023-07-24T07:41:27.259Z,688.00
2023-07-24T07:42:27.305Z,700.00
2023-07-24T07:43:27.333Z,708.00
2023-07-24T07:44:27.365Z,724.00
2023-07-24T07:45:27.415Z,728.00
2023-07-24T07:46:27.654Z,724.00
2023-07-24T07:47:27.525Z,732.00
2023-07-24T07:48:27.512Z,740.00
2023-07-24T07:49:29.593Z,744.00
2023-07-24T07:50:27.586Z,748.00
2023-07-24T07:51:27.644Z,744.00
2023-07-24T07:52:27.662Z,756.00
2023-07-24T07:53:27.699Z,748.00
2023-07-24T07:54:27.738Z,748.00
2023-07-24T07:55:27.776Z,760.00
2023-07-24T07:56:28.122Z,748.00
2023-07-24T07:57:27.849Z,768.00
2023-07-24T07:58:27.928Z,776.00
2023-07-24T07:59:27.938Z,784.00
2023-07-24T08:00:27.963Z,784.00
2023-07-24T08:01:28.101Z,784.00
2023-07-24T08:02:28.164Z,796.00
2023-07-24T08:03:28.112Z,804.00
2023-07-24T08:04:28.129Z,768.00
2023-07-24T08:05:28.150Z,840.00
2023-07-24T08:06:28.547Z,832.00
2023-07-24T08:07:28.227Z,844.00
2023-07-24T08:08:28.261Z,816.00
2023-07-24T08:09:28.295Z,856.00
2023-07-24T08:10:28.337Z,848.00
2023-07-24T08:11:28.371Z,772.00
2023-07-24T08:12:28.416Z,776.00
2023-07-24T08:13:28.449Z,756.00
2023-07-24T08:14:28.486Z,756.00
2023-07-24T08:15:28.526Z,744.00
2023-07-24T08:16:29.048Z,776.00
2023-07-24T08:17:28.756Z,792.00
2023-07-24T08:18:28.664Z,844.00
2023-07-24T08:19:28.673Z,856.00
2023-07-24T08:20:28.711Z,832.00
2023-07-24T08:21:28.758Z,876.00
2023-07-24T08:22:28.785Z,892.00
2023-07-24T08:23:28.826Z,864.00
2023-07-24T08:24:28.906Z,876.00
2023-07-24T08:25:28.901Z,840.00
2023-07-24T08:26:29.263Z,864.00
2023-07-24T08:27:28.978Z,884.00
2023-07-24T08:28:29.033Z,856.00
2023-07-24T08:29:29.049Z,836.00
2023-07-24T08:30:29.121Z,928.00
2023-07-24T08:31:29.187Z,900.00
2023-07-24T08:32:29.178Z,872.00
2023-07-24T08:33:29.200Z,844.00
2023-07-24T08:34:29.248Z,668.00
2023-07-24T08:35:29.328Z,648.00
2023-07-24T08:36:29.589Z,632.00
2023-07-24T08:37:29.352Z,648.00
2023-07-24T08:38:29.437Z,660.00
2023-07-24T08:39:29.455Z,612.00
2023-07-24T08:40:29.469Z,608.00
2023-07-24T08:41:29.511Z,588.00
2023-07-24T08:42:29.541Z,596.00
2023-07-24T08:43:29.584Z,604.00
2023-07-24T08:44:29.623Z,620.00
2023-07-24T08:45:29.658Z,632.00
2023-07-24T08:46:30.042Z,644.00
2023-07-24T08:47:29.743Z,680.00
2023-07-24T08:48:29.775Z,756.00
2023-07-24T08:49:29.813Z,832.00
2023-07-24T08:50:29.852Z,844.00
2023-07-24T08:51:29.886Z,852.00
2023-07-24T08:52:36.536Z,796.00
2023-07-24T08:53:29.967Z,760.00
2023-07-24T08:54:30.023Z,780.00
2023-07-24T08:55:30.040Z,740.00
2023-07-24T08:56:30.245Z,880.00
2023-07-24T08:57:30.114Z,808.00
2023-07-24T08:58:30.167Z,920.00
2023-07-24T08:59:30.192Z,936.00
2023-07-24T09:00:30.244Z,932.00
2023-07-24T09:01:30.266Z,876.00
2023-07-24T09:02:30.333Z,948.00
2023-07-24T09:03:30.472Z,864.00
2023-07-24T09:04:30.402Z,992.00
2023-07-24T09:05:30.424Z,956.00
2023-07-24T09:06:30.815Z,1008.00
2023-07-24T09:07:30.502Z,956.00
2023-07-24T09:08:30.553Z,952.00
2023-07-24T09:09:30.583Z,984.00
2023-07-24T09:10:30.624Z,992.00
2023-07-24T09:11:30.647Z,1000.00
2023-07-24T09:12:30.689Z,1028.00
2023-07-24T09:13:30.726Z,836.00
2023-07-24T09:14:32.606Z,920.00
2023-07-24T09:15:30.803Z,1000.00
2023-07-24T09:16:31.115Z,1024.00
2023-07-24T09:17:30.909Z,872.00
2023-07-24T09:18:30.919Z,848.00
2023-07-24T09:19:32.148Z,808.00
2023-07-24T09:20:32.824Z,800.00
2023-07-24T09:21:31.061Z,1052.00
2023-07-24T09:22:31.141Z,1084.00
2023-07-24T09:23:31.119Z,1096.00
2023-07-24T09:24:31.169Z,856.00
2023-07-24T09:25:31.188Z,836.00
2023-07-24T09:26:31.423Z,848.00
2023-07-24T09:27:32.348Z,836.00
2023-07-24T09:28:31.301Z,840.00
2023-07-24T09:29:31.346Z,1116.00
2023-07-24T09:30:31.393Z,848.00
2023-07-24T09:31:31.417Z,928.00
2023-07-24T09:32:31.472Z,952.00
2023-07-24T09:33:31.490Z,952.00
2023-07-24T09:34:31.534Z,1064.00
2023-07-24T09:35:31.573Z,1060.00
2023-07-24T09:36:31.782Z,924.00
2023-07-24T09:37:32.404Z,864.00
2023-07-24T09:38:31.710Z,900.00
2023-07-24T09:39:31.726Z,1132.00
2023-07-24T09:40:31.764Z,872.00
2023-07-24T09:41:32.473Z,904.00
2023-07-24T09:42:31.874Z,1116.00
2023-07-24T09:44:31.920Z,1124.00
2023-07-24T09:45:36.398Z,936.00
2023-07-24T09:46:32.224Z,968.00
2023-07-24T09:47:53.048Z,848.00
2023-07-24T09:49:32.305Z,1068.00
2023-07-24T09:50:32.162Z,896.00
2023-07-24T09:51:32.299Z,1128.00
2023-07-24T09:52:32.224Z,836.00
2023-07-24T09:53:32.341Z,880.00
2023-07-24T09:54:32.350Z,892.00
2023-07-24T09:55:32.396Z,868.00
2023-07-24T09:56:47.471Z,832.00
2023-07-24T09:57:32.417Z,880.00
2023-07-24T09:58:32.468Z,912.00
2023-07-24T09:59:32.494Z,1168.00
2023-07-24T10:00:32.565Z,1024.00
2023-07-24T10:01:33.039Z,1092.00
2023-07-24T10:02:32.617Z,1144.00
2023-07-24T10:03:32.654Z,1128.00
2023-07-24T10:04:32.844Z,1012.00
2023-07-24T10:05:32.776Z,1008.00
2023-07-24T10:06:33.259Z,1056.00
2023-07-24T10:07:32.817Z,1172.00
2023-07-24T10:08:32.852Z,1120.00
2023-07-24T10:09:32.877Z,1120.00
2023-07-24T10:10:32.926Z,1112.00
2023-07-24T10:11:33.404Z,1100.00
2023-07-24T10:12:33.007Z,1072.00
2023-07-24T10:13:33.034Z,1108.00
2023-07-24T10:14:33.078Z,1136.00
2023-07-24T10:15:33.112Z,1120.00
2023-07-24T10:16:33.181Z,1092.00
2023-07-24T10:17:33.230Z,1100.00
2023-07-24T10:18:33.232Z,1180.00
2023-07-24T10:19:33.270Z,1208.00
2023-07-24T10:20:33.315Z,1232.00
2023-07-24T10:21:33.660Z,1252.00
2023-07-24T10:22:33.393Z,1252.00
2023-07-24T10:23:33.425Z,1280.00
2023-07-24T10:24:41.602Z,1280.00
2023-07-24T10:25:33.566Z,1296.00
2023-07-24T10:26:33.674Z,1260.00
2023-07-24T10:27:33.585Z,1284.00
2023-07-24T10:28:33.622Z,1232.00
2023-07-24T10:29:33.668Z,964.00
2023-07-24T10:30:35.222Z,1316.00
2023-07-24T10:31:34.208Z,1312.00
2023-07-24T10:32:33.825Z,1312.00
2023-07-24T10:33:33.942Z,1332.00
2023-07-24T10:34:33.862Z,1312.00
2023-07-24T10:35:33.898Z,1252.00
2023-07-24T10:36:33.952Z,984.00
2023-07-24T10:37:33.991Z,1284.00
2023-07-24T10:38:35.262Z,1000.00
2023-07-24T10:39:34.063Z,1000.00
2023-07-24T10:40:34.098Z,1116.00
2023-07-24T10:41:34.179Z,1012.00
2023-07-24T10:42:34.189Z,1100.00
2023-07-24T10:43:34.213Z,928.00
2023-07-24T10:44:34.261Z,980.00
2023-07-24T10:45:34.331Z,1156.00
2023-07-24T10:46:34.339Z,1152.00
2023-07-24T10:47:34.392Z,1168.00
2023-07-24T10:48:34.415Z,1136.00
2023-07-24T10:49:34.471Z,1196.00
2023-07-24T10:50:34.489Z,964.00
2023-07-24T10:51:34.588Z,948.00
2023-07-24T10:52:34.579Z,972.00
2023-07-24T10:53:34.609Z,1100.00
2023-07-24T10:54:34.656Z,924.00
2023-07-24T10:55:34.700Z,1224.00
2023-07-24T10:56:34.743Z,1276.00
2023-07-24T10:57:34.772Z,1264.00
2023-07-24T10:58:34.855Z,1316.00
2023-07-24T10:59:34.848Z,1336.00
2023-07-24T11:00:34.892Z,1044.00
2023-07-24T11:01:35.507Z,1348.00
2023-07-24T11:02:34.991Z,1396.00
2023-07-24T11:03:35.004Z,1060.00
2023-07-24T11:04:35.076Z,1048.00
2023-07-24T11:05:35.085Z,1148.00
2023-07-24T11:06:35.126Z,1144.00
2023-07-24T11:07:35.166Z,1180.00
2023-07-24T11:08:35.203Z,1120.00
2023-07-24T11:09:35.245Z,1116.00
2023-07-24T11:10:35.277Z,844.00
2023-07-24T11:11:35.821Z,820.00
2023-07-24T11:12:35.358Z,756.00
2023-07-24T11:13:35.399Z,636.00
2023-07-24T11:14:35.447Z,572.00
2023-07-24T11:15:35.516Z,544.00
2023-07-24T11:16:35.649Z,512.00
2023-07-24T11:17:35.571Z,476.00
2023-07-24T11:18:48.433Z,512.00
2023-07-24T11:19:35.649Z,528.00
2023-07-24T11:20:35.679Z,532.00
2023-07-24T11:21:36.076Z,516.00
2023-07-24T11:22:35.760Z,492.00
2023-07-24T11:23:35.804Z,468.00
2023-07-24T11:24:35.842Z,468.00
2023-07-24T11:25:35.874Z,472.00
2023-07-24T11:26:35.917Z,508.00
2023-07-24T11:27:35.969Z,616.00
2023-07-24T11:28:36.000Z,668.00
2023-07-24T11:29:36.040Z,712.00
2023-07-24T11:30:36.098Z,692.00
2023-07-24T11:31:36.226Z,672.00
2023-07-24T11:32:36.193Z,656.00
2023-07-24T11:33:36.189Z,660.00
2023-07-24T11:34:36.244Z,672.00
2023-07-24T11:35:36.284Z,688.00
2023-07-24T11:36:36.310Z,744.00
2023-07-24T11:37:36.346Z,812.00
2023-07-24T11:38:36.386Z,832.00
2023-07-24T11:39:36.430Z,828.00
2023-07-24T11:40:36.465Z,832.00
2023-07-24T11:41:36.507Z,864.00
2023-07-24T11:42:36.547Z,860.00
2023-07-24T11:43:36.593Z,868.00
2023-07-24T11:44:36.626Z,900.00
2023-07-24T11:45:36.661Z,840.00
2023-07-24T11:46:36.757Z,772.00
2023-07-24T11:47:36.749Z,752.00
2023-07-24T11:48:36.782Z,724.00
2023-07-24T11:49:36.821Z,716.00
2023-07-24T11:50:36.860Z,720.00
2023-07-24T11:51:36.899Z,720.00
2023-07-24T11:52:36.944Z,716.00
2023-07-24T11:53:36.984Z,728.00
2023-07-24T11:54:37.019Z,800.00
2023-07-24T11:55:37.060Z,984.00
2023-07-24T11:56:37.107Z,580.00
2023-07-24T11:57:37.151Z,480.00
2023-07-24T11:58:37.178Z,432.00
2023-07-24T11:59:37.218Z,364.00
2023-07-24T12:00:37.929Z,320.00
2023-07-24T12:01:37.330Z,272.00
2023-07-24T12:02:37.517Z,240.00
2023-07-24T12:05:09.105Z,200.00
2023-07-24T12:06:09.108Z,172.00
2023-07-24T12:08:04.509Z,128.00
2023-07-24T12:09:02.320Z,112.00
2023-07-24T12:10:55.483Z,92.00
2023-07-24T12:11:55.527Z,88.00
2023-07-24T12:13:59.598Z,72.00
2023-07-24T12:14:59.606Z,68.00
2023-07-24T12:17:03.675Z,76.00
2023-07-24T12:18:05.374Z,72.00
2023-07-24T12:19:56.897Z,80.00
2023-07-24T12:20:56.927Z,88.00
2023-07-24T12:22:50.115Z,128.00
2023-07-24T12:23:50.114Z,144.00
2023-07-24T12:25:54.236Z,184.00
2023-07-24T12:26:54.241Z,200.00
2023-07-24T12:28:47.227Z,220.00
2023-07-24T12:29:47.264Z,232.00
2023-07-24T12:32:12.340Z,264.00
2023-07-24T12:34:04.537Z,312.00
2023-07-24T12:35:04.540Z,332.00
2023-07-24T12:37:08.619Z,388.00
2023-07-24T12:38:08.626Z,416.00
2023-07-24T12:40:12.712Z,512.00
2023-07-24T12:41:12.716Z,560.00
2023-07-24T12:43:05.878Z,720.00
2023-07-24T12:44:05.921Z,796.00
2023-07-24T12:46:10.085Z,956.00
2023-07-24T12:47:10.068Z,888.00
2023-07-24T12:49:03.080Z,780.00
2023-07-24T12:50:05.018Z,764.00
2023-07-24T12:51:56.261Z,612.00
2023-07-24T12:52:56.314Z,372.00
2023-07-24T12:55:02.258Z,320.00
2023-07-24T12:56:00.383Z,308.00
2023-07-24T12:57:53.588Z,288.00
2023-07-24T12:58:53.582Z,280.00
2023-07-24T13:00:46.759Z,272.00
2023-07-24T13:01:46.787Z,276.00
2023-07-24T13:03:40.098Z,288.00
2023-07-24T13:04:39.993Z,304.00
2023-07-24T13:06:33.511Z,316.00